createdAt,value
2022-12-29T00:00:49.847Z,5.92
2022-12-29T00:02:11.579Z,4.96
2022-12-29T00:03:33.445Z,5.48
2022-12-29T00:04:55.436Z,4.25
2022-12-29T00:06:17.879Z,5.03
2022-12-29T00:07:39.524Z,4.95
2022-12-29T00:09:01.008Z,4.68
2022-12-29T00:10:22.442Z,4.13
2022-12-29T00:11:43.556Z,4.43
2022-12-29T00:13:04.929Z,3.72
2022-12-29T00:14:26.756Z,4.22
2022-12-29T00:15:48.146Z,4.12
2022-12-29T00:17:09.532Z,4.29
2022-12-29T00:18:30.636Z,4.11
2022-12-29T00:19:51.912Z,4.20
2022-12-29T00:22:25.657Z,5.88
2022-12-29T00:23:47.041Z,4.88
2022-12-29T00:25:09.588Z,5.27
2022-12-29T00:26:31.025Z,6.27
2022-12-29T00:27:52.376Z,6.47
2022-12-29T00:29:13.831Z,7.06
2022-12-29T00:30:35.487Z,7.64
2022-12-29T00:31:56.890Z,8.33
2022-12-29T00:33:19.467Z,7.91
2022-12-29T00:34:40.505Z,8.32
2022-12-29T00:36:07.260Z,7.08
2022-12-29T00:37:29.132Z,11.46
2022-12-29T00:38:51.980Z,12.41
2022-12-29T00:40:13.829Z,11.23
2022-12-29T00:41:35.045Z,12.28
2022-12-29T00:42:56.700Z,6.05
2022-12-29T00:44:18.090Z,9.33
2022-12-29T00:45:43.399Z,6.01
2022-12-29T00:47:04.996Z,8.58
2022-12-29T00:48:26.583Z,8.21
2022-12-29T00:49:48.212Z,10.58
2022-12-29T00:51:09.655Z,8.57
2022-12-29T00:52:30.670Z,10.27
2022-12-29T00:53:52.447Z,7.81
2022-12-29T00:55:14.068Z,7.37
2022-12-29T00:56:35.598Z,12.41
2022-12-29T00:57:57.080Z,26.78
2022-12-29T00:59:18.604Z,22.29
2022-12-29T01:00:40.069Z,6.50
2022-12-29T01:02:01.374Z,6.99
2022-12-29T01:03:22.973Z,7.83
2022-12-29T01:04:44.418Z,10.23
2022-12-29T01:06:07.811Z,20.85
2022-12-29T01:08:49.539Z,7.92
2022-12-29T01:10:11.144Z,5.66
2022-12-29T01:11:32.555Z,5.99
2022-12-29T01:12:53.983Z,5.34
2022-12-29T01:14:15.029Z,6.64
2022-12-29T01:15:36.372Z,5.98
2022-12-29T01:16:57.611Z,6.21
2022-12-29T01:18:18.753Z,7.66
2022-12-29T01:19:39.984Z,7.20
2022-12-29T01:21:01.939Z,7.01
2022-12-29T01:22:23.365Z,5.31
2022-12-29T01:23:44.508Z,6.68
2022-12-29T01:26:16.471Z,6.43
2022-12-29T01:27:38.337Z,6.20
2022-12-29T01:28:59.821Z,5.82
2022-12-29T01:30:21.954Z,6.48
2022-12-29T01:31:43.153Z,6.04
2022-12-29T01:33:04.380Z,6.26
2022-12-29T01:34:25.933Z,6.04
2022-12-29T01:35:47.466Z,6.21
2022-12-29T01:37:08.443Z,6.09
2022-12-29T01:38:29.931Z,6.74
2022-12-29T01:39:51.204Z,7.04
2022-12-29T01:41:13.507Z,10.74
2022-12-29T01:43:57.845Z,8.57
2022-12-29T01:45:18.877Z,9.56
2022-12-29T01:46:44.239Z,8.74
2022-12-29T01:48:05.418Z,9.76
2022-12-29T01:49:27.256Z,9.36
2022-12-29T01:52:05.417Z,9.86
2022-12-29T01:53:28.255Z,13.27
2022-12-29T01:56:12.683Z,11.56
2022-12-29T01:57:36.332Z,10.23
2022-12-29T01:59:04.278Z,8.69
2022-12-29T02:00:25.635Z,7.64
2022-12-29T02:01:47.104Z,6.63
2022-12-29T02:03:08.491Z,8.13
2022-12-29T02:04:30.680Z,7.62
2022-12-29T02:06:01.156Z,6.86
2022-12-29T02:07:23.265Z,6.57
2022-12-29T02:08:46.490Z,6.37
2022-12-29T02:10:08.246Z,7.38
2022-12-29T02:11:29.772Z,7.61
2022-12-29T02:12:51.461Z,8.01
2022-12-29T02:14:13.377Z,6.26
2022-12-29T02:15:38.507Z,5.97
2022-12-29T02:17:09.604Z,5.92
2022-12-29T02:18:46.881Z,6.17
2022-12-29T02:20:45.165Z,5.97
2022-12-29T02:22:29.957Z,6.79
2022-12-29T02:24:11.768Z,10.50
2022-12-29T02:26:05.039Z,6.08
2022-12-29T02:27:52.608Z,6.14
2022-12-29T02:29:41.431Z,5.79
2022-12-29T02:31:19.131Z,5.97
2022-12-29T02:33:01.808Z,5.70
2022-12-29T02:34:46.532Z,7.45
2022-12-29T02:36:21.297Z,5.75
2022-12-29T02:37:46.027Z,5.99
2022-12-29T02:39:13.779Z,5.71
2022-12-29T02:40:48.092Z,19.84
2022-12-29T02:45:22.508Z,6.37
2022-12-29T02:48:28.380Z,22.71
2022-12-29T02:49:53.625Z,9.83
2022-12-29T02:51:26.876Z,9.56
2022-12-29T02:52:54.427Z,7.43
2022-12-29T02:54:18.047Z,6.29
2022-12-29T02:55:39.489Z,6.77
2022-12-29T02:57:01.154Z,7.69
2022-12-29T02:58:22.887Z,6.44
2022-12-29T02:59:44.201Z,6.17
2022-12-29T03:01:14.583Z,6.89
2022-12-29T03:03:01.129Z,8.87
2022-12-29T03:06:11.163Z,9.87
2022-12-29T03:07:39.062Z,7.12
2022-12-29T03:09:27.251Z,7.42
2022-12-29T03:10:52.439Z,11.87
2022-12-29T03:12:20.378Z,13.36
2022-12-29T03:13:48.223Z,19.16
2022-12-29T03:15:11.939Z,13.12
2022-12-29T03:16:35.958Z,15.43
2022-12-29T03:18:14.860Z,13.13
2022-12-29T03:19:38.023Z,16.52
2022-12-29T03:22:22.093Z,4.51
2022-12-29T03:23:44.165Z,4.85
2022-12-29T03:25:18.257Z,10.36
2022-12-29T03:26:40.850Z,6.17
2022-12-29T03:28:05.613Z,6.76
2022-12-29T03:29:28.331Z,8.22
2022-12-29T03:30:49.821Z,9.10
2022-12-29T03:32:11.759Z,10.68
2022-12-29T03:33:33.355Z,8.12
2022-12-29T03:34:54.773Z,7.28
2022-12-29T03:36:20.923Z,7.02
2022-12-29T03:37:45.909Z,12.36
2022-12-29T03:39:09.819Z,32.08
2022-12-29T03:40:31.564Z,21.76
2022-12-29T03:41:56.093Z,19.62
2022-12-29T03:43:17.224Z,15.67
2022-12-29T03:44:41.021Z,17.41
2022-12-29T03:46:02.232Z,9.97
2022-12-29T03:47:23.389Z,16.21
2022-12-29T03:48:44.787Z,9.83
2022-12-29T03:50:08.423Z,9.17
2022-12-29T03:51:29.377Z,29.12
2022-12-29T03:52:50.811Z,8.98
2022-12-29T03:54:12.076Z,7.50
2022-12-29T03:55:33.717Z,8.95
2022-12-29T03:56:55.235Z,7.98
2022-12-29T03:58:16.630Z,9.91
2022-12-29T03:59:39.719Z,6.77
2022-12-29T04:01:01.588Z,5.72
2022-12-29T04:02:23.673Z,6.25
2022-12-29T04:03:45.423Z,5.73
2022-12-29T04:05:07.089Z,5.86
2022-12-29T04:06:28.729Z,6.51
2022-12-29T04:07:50.173Z,7.19
2022-12-29T04:09:11.287Z,6.77
2022-12-29T04:10:32.691Z,7.07
2022-12-29T04:11:53.820Z,6.29
2022-12-29T04:14:29.922Z,6.01
2022-12-29T04:15:51.704Z,6.29
2022-12-29T04:17:13.082Z,8.19
2022-12-29T04:18:34.127Z,7.67
2022-12-29T04:19:55.585Z,7.76
2022-12-29T04:21:17.259Z,13.32
2022-12-29T04:22:39.832Z,10.17
2022-12-29T04:24:00.866Z,7.35
2022-12-29T04:25:22.052Z,8.43
2022-12-29T04:26:43.861Z,7.51
2022-12-29T04:28:05.414Z,7.44
2022-12-29T04:29:26.497Z,7.07
2022-12-29T04:30:47.860Z,6.24
2022-12-29T04:32:08.975Z,6.09
2022-12-29T04:33:30.021Z,6.95
2022-12-29T04:34:51.443Z,7.43
2022-12-29T04:36:13.889Z,6.62
2022-12-29T04:37:35.132Z,6.41
2022-12-29T04:38:56.164Z,6.29
2022-12-29T04:40:17.677Z,6.01
2022-12-29T04:41:39.228Z,7.07
2022-12-29T04:43:00.321Z,6.28
2022-12-29T04:44:21.365Z,5.99
2022-12-29T04:46:56.179Z,6.77
2022-12-29T04:48:17.829Z,5.65
2022-12-29T04:49:39.523Z,6.67
2022-12-29T04:51:03.141Z,5.99
2022-12-29T04:52:24.682Z,5.98
2022-12-29T04:53:59.477Z,6.03
2022-12-29T04:55:20.739Z,5.07
2022-12-29T04:56:42.341Z,5.81
2022-12-29T04:58:03.687Z,5.33
2022-12-29T04:59:24.697Z,5.09
2022-12-29T05:00:45.819Z,4.76
2022-12-29T05:02:07.137Z,9.29
2022-12-29T05:03:29.783Z,8.59
2022-12-29T05:04:51.218Z,7.32
2022-12-29T05:06:13.262Z,8.02
2022-12-29T05:07:34.973Z,5.16
2022-12-29T05:08:56.115Z,6.21
2022-12-29T05:10:19.311Z,5.32
2022-12-29T05:11:44.236Z,6.87
2022-12-29T05:13:05.246Z,5.38
2022-12-29T05:14:26.545Z,5.61
2022-12-29T05:15:52.848Z,6.04
2022-12-29T05:17:14.180Z,5.88
2022-12-29T05:18:35.745Z,5.55
2022-12-29T05:19:57.215Z,5.49
2022-12-29T05:21:20.081Z,5.86
2022-12-29T05:22:41.865Z,5.81
2022-12-29T05:24:05.332Z,6.01
2022-12-29T05:25:28.008Z,5.52
2022-12-29T05:26:49.719Z,6.01
2022-12-29T05:28:11.322Z,9.83
2022-12-29T05:29:33.785Z,7.27
2022-12-29T05:31:00.062Z,14.21
2022-12-29T05:32:21.391Z,5.94
2022-12-29T05:33:45.351Z,5.17
2022-12-29T05:35:07.897Z,4.76
2022-12-29T05:36:34.451Z,5.16
2022-12-29T05:39:15.253Z,5.29
2022-12-29T05:41:59.810Z,7.51
2022-12-29T05:43:23.699Z,10.11
2022-12-29T05:44:49.405Z,10.32
2022-12-29T05:46:11.005Z,13.83
2022-12-29T05:47:34.197Z,19.42
2022-12-29T05:48:56.799Z,19.58
2022-12-29T05:51:40.012Z,16.55
2022-12-29T05:53:01.423Z,11.62
2022-12-29T05:54:24.155Z,9.08
2022-12-29T05:55:49.255Z,14.63
2022-12-29T05:57:10.836Z,9.92
2022-12-29T05:58:31.961Z,10.84
2022-12-29T05:59:54.372Z,9.85
2022-12-29T06:01:21.225Z,8.54
2022-12-29T06:02:44.850Z,6.54
2022-12-29T06:04:06.504Z,6.38
2022-12-29T06:05:27.806Z,7.81
2022-12-29T06:06:50.496Z,6.83
2022-12-29T06:08:14.420Z,5.31
2022-12-29T06:09:35.842Z,7.89
2022-12-29T06:10:57.909Z,6.92
2022-12-29T06:12:20.338Z,7.07
2022-12-29T06:13:44.039Z,8.96
2022-12-29T06:15:09.221Z,10.83
2022-12-29T06:16:30.776Z,9.64
2022-12-29T06:17:53.945Z,8.33
2022-12-29T06:19:15.386Z,8.39
2022-12-29T06:20:36.648Z,7.44
2022-12-29T06:21:59.786Z,6.58
2022-12-29T06:23:22.505Z,7.17
2022-12-29T06:24:45.809Z,6.61
2022-12-29T06:26:07.496Z,8.08
2022-12-29T06:27:29.989Z,7.91
2022-12-29T06:29:01.727Z,4.95
2022-12-29T06:30:24.900Z,6.60
2022-12-29T06:31:48.579Z,6.99
2022-12-29T06:33:12.110Z,6.83
2022-12-29T06:34:33.877Z,8.23
2022-12-29T06:35:55.059Z,8.46
2022-12-29T06:37:17.309Z,9.16
2022-12-29T06:40:21.394Z,11.06
2022-12-29T06:41:45.780Z,12.72
2022-12-29T06:43:09.613Z,12.62
2022-12-29T06:44:31.266Z,11.01
2022-12-29T06:45:52.751Z,11.38
2022-12-29T06:47:16.898Z,9.78
2022-12-29T06:48:41.350Z,10.56
2022-12-29T06:50:02.929Z,10.26
2022-12-29T06:51:26.357Z,10.19
2022-12-29T06:52:50.331Z,9.98
2022-12-29T06:54:13.917Z,8.64
2022-12-29T06:55:36.061Z,8.89
2022-12-29T06:56:57.887Z,6.94
2022-12-29T06:58:19.290Z,8.92
2022-12-29T06:59:41.952Z,8.93
2022-12-29T07:02:46.343Z,8.40
2022-12-29T07:04:07.862Z,11.29
2022-12-29T07:05:32.676Z,8.41
2022-12-29T07:06:57.570Z,10.62
2022-12-29T07:08:24.378Z,11.02
2022-12-29T07:09:46.431Z,7.57
2022-12-29T07:11:08.014Z,8.47
2022-12-29T07:12:31.846Z,13.27
2022-12-29T07:13:54.535Z,14.15
2022-12-29T07:15:18.381Z,11.11
2022-12-29T07:16:39.953Z,9.73
2022-12-29T07:18:03.943Z,11.34
2022-12-29T07:19:25.354Z,11.11
2022-12-29T07:20:46.849Z,11.36
2022-12-29T07:22:09.021Z,12.37
2022-12-29T07:23:30.801Z,13.11
2022-12-29T07:24:52.298Z,11.53
2022-12-29T07:26:14.692Z,13.97
2022-12-29T07:27:36.230Z,15.16
2022-12-29T07:28:57.462Z,15.28
2022-12-29T07:30:19.045Z,16.46
2022-12-29T07:31:40.883Z,17.08
2022-12-29T07:33:05.321Z,16.93
2022-12-29T07:34:26.871Z,19.74
2022-12-29T07:35:49.312Z,21.28
2022-12-29T07:37:34.355Z,17.11
2022-12-29T07:38:56.581Z,16.01
2022-12-29T07:40:25.565Z,18.27
2022-12-29T07:41:51.671Z,15.04
2022-12-29T07:43:14.634Z,11.69
2022-12-29T07:44:36.401Z,10.79
2022-12-29T07:45:58.843Z,12.54
2022-12-29T07:47:20.149Z,14.72
2022-12-29T07:48:41.500Z,15.16
2022-12-29T07:50:54.857Z,13.33
2022-12-29T07:52:29.247Z,11.16
2022-12-29T07:53:50.889Z,12.22
2022-12-29T07:55:12.617Z,14.53
2022-12-29T07:56:33.929Z,14.63
2022-12-29T07:57:55.340Z,15.84
2022-12-29T07:59:17.197Z,16.84
2022-12-29T08:00:38.844Z,19.12
2022-12-29T08:02:02.797Z,8.13
2022-12-29T08:03:32.110Z,16.96
2022-12-29T08:04:54.011Z,29.71
2022-12-29T08:06:17.787Z,14.52
2022-12-29T08:07:39.186Z,12.71
2022-12-29T08:10:32.861Z,9.85
2022-12-29T08:11:57.667Z,12.46
2022-12-29T08:13:18.823Z,12.55
2022-12-29T08:14:46.038Z,9.61
2022-12-29T08:16:08.713Z,9.90
2022-12-29T08:19:17.616Z,8.77
2022-12-29T08:20:41.563Z,15.21
2022-12-29T08:22:08.866Z,10.49
2022-12-29T08:24:48.853Z,9.86
2022-12-29T08:26:10.562Z,12.39
2022-12-29T08:27:32.034Z,13.06
2022-12-29T08:28:54.056Z,12.07
2022-12-29T08:30:16.319Z,11.17
2022-12-29T08:31:38.070Z,11.37
2022-12-29T08:32:59.499Z,11.71
2022-12-29T08:34:21.016Z,13.31
2022-12-29T08:35:42.680Z,15.40
2022-12-29T08:37:04.386Z,12.89
2022-12-29T08:38:25.632Z,9.92
2022-12-29T08:39:47.532Z,9.28
2022-12-29T08:41:09.016Z,8.78
2022-12-29T08:42:32.340Z,7.54
2022-12-29T08:43:53.735Z,8.28
2022-12-29T08:45:14.930Z,7.91
2022-12-29T08:46:36.822Z,8.07
2022-12-29T08:47:58.541Z,8.21
2022-12-29T08:49:20.241Z,8.03
2022-12-29T08:50:43.674Z,7.99
2022-12-29T08:53:25.872Z,8.21
2022-12-29T08:54:47.331Z,8.89
2022-12-29T08:56:09.453Z,9.01
2022-12-29T08:57:30.725Z,8.86
2022-12-29T08:58:53.946Z,9.00
2022-12-29T09:00:16.393Z,9.14
2022-12-29T09:01:37.633Z,9.71
2022-12-29T09:04:24.893Z,9.57
2022-12-29T09:05:49.982Z,9.84
2022-12-29T09:07:11.540Z,10.93
2022-12-29T09:08:32.635Z,9.86
2022-12-29T09:09:53.601Z,10.06
2022-12-29T09:11:19.612Z,9.74
2022-12-29T09:12:42.262Z,11.59
2022-12-29T09:14:03.824Z,7.99
2022-12-29T09:15:25.184Z,9.35
2022-12-29T09:16:46.512Z,9.24
2022-12-29T09:18:07.915Z,17.55
2022-12-29T09:19:30.289Z,11.09
2022-12-29T09:22:47.824Z,8.87
2022-12-29T09:24:11.529Z,8.88
2022-12-29T09:25:39.231Z,10.26
2022-12-29T09:27:03.451Z,10.63
2022-12-29T09:28:25.615Z,10.27
2022-12-29T09:29:47.624Z,10.92
2022-12-29T09:31:16.937Z,10.34
2022-12-29T09:32:44.568Z,11.68
2022-12-29T09:34:03.480Z,10.87
2022-12-29T09:35:25.905Z,10.12
2022-12-29T09:36:52.267Z,9.36
2022-12-29T09:38:16.623Z,10.64
2022-12-29T09:39:40.105Z,9.22
2022-12-29T09:55:13.771Z,5.17
2022-12-29T09:57:50.316Z,7.21
2022-12-29T09:59:19.900Z,7.31
2022-12-29T10:01:13.720Z,7.38
2022-12-29T10:02:54.658Z,6.92
2022-12-29T10:04:17.908Z,7.37
2022-12-29T10:08:24.826Z,7.34
2022-12-29T10:10:08.451Z,7.39
2022-12-29T10:11:47.252Z,5.77
2022-12-29T10:13:46.429Z,6.49
2022-12-29T10:15:39.087Z,5.98
2022-12-29T10:17:22.866Z,6.46
2022-12-29T10:23:00.990Z,8.51
2022-12-29T10:24:26.906Z,7.20
2022-12-29T10:47:05.848Z,12.27
2022-12-29T10:48:32.180Z,9.61
2022-12-29T10:49:53.783Z,8.98
2022-12-29T10:51:21.863Z,10.37
2022-12-29T10:52:44.951Z,16.67
2022-12-29T10:55:30.300Z,10.94
2022-12-29T10:57:08.265Z,8.09
2022-12-29T10:58:29.765Z,9.43
2022-12-29T10:59:51.880Z,20.32
2022-12-29T11:01:13.194Z,10.49
2022-12-29T11:02:57.693Z,21.46
2022-12-29T11:04:41.252Z,10.40
2022-12-29T11:06:09.517Z,8.56
2022-12-29T11:07:30.950Z,7.68
2022-12-29T11:09:00.503Z,8.54
2022-12-29T11:10:37.161Z,8.12
2022-12-29T11:12:21.136Z,8.27
2022-12-29T11:13:54.949Z,5.48
2022-12-29T11:16:41.429Z,6.01
2022-12-29T11:18:02.710Z,6.29
2022-12-29T11:19:25.806Z,7.91
2022-12-29T11:22:26.189Z,5.97
2022-12-29T11:23:50.718Z,5.73
2022-12-29T11:25:12.984Z,6.08
2022-12-29T11:26:35.154Z,6.28
2022-12-29T11:29:32.182Z,6.69
2022-12-29T11:30:58.271Z,5.62
2022-12-29T11:32:28.540Z,5.73
2022-12-29T11:33:48.437Z,5.35
2022-12-29T11:35:14.403Z,5.56
2022-12-29T11:36:37.609Z,5.59
2022-12-29T11:38:12.251Z,6.10
2022-12-29T11:39:56.132Z,5.94
2022-12-29T11:41:32.963Z,4.84
2022-12-29T11:43:02.932Z,5.12
2022-12-29T11:44:24.287Z,5.56
2022-12-29T11:45:51.914Z,5.83
2022-12-29T11:48:42.616Z,5.13
2022-12-29T11:50:07.783Z,5.28
2022-12-29T11:51:32.884Z,5.38
2022-12-29T11:53:03.682Z,5.77
2022-12-29T11:54:31.390Z,5.82
2022-12-29T11:55:58.606Z,5.81
2022-12-29T11:57:20.661Z,5.88
2022-12-29T11:58:41.875Z,5.32
2022-12-29T12:00:18.668Z,6.08
2022-12-29T12:01:40.452Z,5.83
2022-12-29T12:04:25.186Z,5.74
2022-12-29T12:07:11.174Z,29.19
2022-12-29T12:10:07.119Z,5.64
2022-12-29T12:11:33.586Z,4.81
2022-12-29T12:13:08.460Z,11.38
2022-12-29T12:14:38.867Z,6.88
2022-12-29T12:16:07.020Z,4.96
2022-12-29T12:17:32.527Z,10.07
2022-12-29T12:18:56.059Z,6.70
2022-12-29T12:22:22.305Z,6.69
2022-12-29T12:23:52.607Z,5.46
2022-12-29T12:26:59.048Z,6.23
2022-12-29T12:29:51.062Z,5.59
2022-12-29T12:32:43.481Z,5.87
2022-12-29T12:34:06.968Z,5.27
2022-12-29T12:35:51.387Z,5.91
2022-12-29T12:37:33.312Z,5.73
2022-12-29T12:39:01.101Z,5.19
2022-12-29T12:40:32.497Z,5.86
2022-12-29T12:42:03.217Z,4.94
2022-12-29T12:43:42.143Z,5.17
2022-12-29T12:45:40.669Z,4.97
2022-12-29T12:47:12.009Z,4.96
2022-12-29T12:48:45.792Z,5.51
2022-12-29T12:51:47.826Z,5.11
2022-12-29T12:54:53.657Z,5.24
2022-12-29T12:56:36.360Z,5.49
2022-12-29T12:58:04.420Z,5.29
2022-12-29T13:02:06.457Z,5.43
2022-12-29T13:08:29.128Z,5.46
2022-12-29T13:10:19.728Z,5.83
2022-12-29T13:13:47.712Z,6.10
2022-12-29T13:15:21.604Z,5.89
2022-12-29T13:18:27.001Z,6.01
2022-12-29T13:21:36.990Z,7.22
2022-12-29T13:23:04.952Z,6.57
2022-12-29T13:24:49.887Z,7.19
2022-12-29T13:26:27.569Z,7.02
2022-12-29T13:27:58.942Z,8.16
2022-12-29T13:29:52.930Z,7.39
2022-12-29T13:31:34.395Z,7.37
2022-12-29T13:33:08.683Z,7.56
2022-12-29T13:34:42.912Z,8.96
2022-12-29T13:36:07.843Z,10.35
2022-12-29T13:37:31.804Z,10.09
2022-12-29T13:39:17.537Z,10.51
2022-12-29T13:40:40.470Z,8.83
2022-12-29T13:42:02.488Z,11.56
2022-12-29T13:43:24.172Z,8.46
2022-12-29T13:46:16.522Z,10.48
2022-12-29T13:47:53.670Z,10.82
2022-12-29T13:49:19.704Z,9.58
2022-12-29T13:50:41.267Z,9.80
2022-12-29T13:53:59.530Z,10.61
2022-12-29T13:55:39.615Z,8.61
2022-12-29T13:57:24.101Z,8.59
2022-12-29T13:58:58.111Z,8.36
2022-12-29T14:03:34.499Z,7.99
2022-12-29T14:06:32.543Z,9.70
2022-12-29T14:08:01.628Z,8.61
2022-12-29T14:09:49.385Z,10.31
2022-12-29T14:12:36.879Z,9.58
2022-12-29T14:13:58.467Z,9.53
2022-12-29T14:16:36.754Z,7.83
2022-12-29T14:18:11.909Z,8.60
2022-12-29T14:19:41.541Z,9.31
2022-12-29T14:21:16.081Z,8.36
2022-12-29T14:22:38.549Z,9.48
2022-12-29T14:24:30.412Z,8.21
2022-12-29T14:26:16.768Z,8.83
2022-12-29T14:30:50.324Z,9.41
2022-12-29T14:32:27.667Z,8.16
2022-12-29T14:34:11.127Z,8.64
2022-12-29T14:35:38.425Z,8.42
2022-12-29T14:37:02.801Z,8.54
2022-12-29T14:39:44.875Z,8.77
2022-12-29T14:41:38.253Z,8.92
2022-12-29T14:42:59.839Z,8.08
2022-12-29T14:44:21.380Z,8.86
2022-12-29T14:45:46.772Z,7.80
2022-12-29T14:47:08.370Z,8.48
2022-12-29T14:48:32.839Z,9.63
2022-12-29T14:49:53.866Z,8.62
2022-12-29T15:00:47.863Z,7.42
2022-12-29T15:02:20.982Z,7.38
2022-12-29T15:03:46.626Z,8.83
2022-12-29T15:05:27.139Z,8.71
2022-12-29T15:06:49.312Z,8.47
2022-12-29T15:08:11.190Z,9.93
2022-12-29T15:09:37.195Z,16.09
2022-12-29T15:11:13.827Z,19.86
2022-12-29T15:13:53.828Z,13.32
2022-12-29T15:15:20.627Z,11.51
2022-12-29T15:16:42.199Z,13.85
2022-12-29T15:18:22.042Z,14.36
2022-12-29T15:19:43.552Z,13.91
2022-12-29T15:21:05.915Z,16.43
2022-12-29T15:22:27.473Z,15.48
2022-12-29T15:23:49.769Z,16.67
2022-12-29T15:25:15.725Z,11.81
2022-12-29T15:26:38.725Z,13.08
2022-12-29T15:28:04.300Z,14.58
2022-12-29T15:29:33.751Z,14.88
2022-12-29T15:30:57.513Z,17.83
2022-12-29T15:32:27.203Z,27.12
2022-12-29T15:33:50.242Z,21.22
2022-12-29T15:36:46.009Z,21.74
2022-12-29T15:39:41.263Z,18.91
2022-12-29T15:41:24.324Z,16.41
2022-12-29T15:43:07.703Z,14.90
2022-12-29T15:44:32.292Z,15.04
2022-12-29T15:45:53.562Z,18.26
2022-12-29T15:47:19.770Z,18.30
2022-12-29T15:48:41.103Z,19.44
2022-12-29T15:50:23.492Z,18.18
2022-12-29T15:51:45.334Z,16.99
2022-12-29T15:53:13.501Z,16.80
2022-12-29T15:54:34.721Z,22.94
2022-12-29T15:56:07.398Z,18.08
2022-12-29T15:57:30.377Z,21.07
2022-12-29T16:00:30.374Z,20.24
2022-12-29T16:01:51.670Z,19.06
2022-12-29T16:03:13.601Z,20.18
2022-12-29T16:04:48.677Z,21.41
2022-12-29T16:07:28.382Z,22.74
2022-12-29T16:09:09.212Z,19.65
2022-12-29T16:10:33.757Z,14.88
2022-12-29T16:11:56.276Z,17.60
2022-12-29T16:15:00.839Z,17.99
2022-12-29T16:17:51.619Z,18.62
2022-12-29T16:19:39.507Z,18.91
2022-12-29T16:21:01.064Z,21.92
2022-12-29T16:22:37.051Z,18.68
2022-12-29T16:24:00.926Z,19.92
2022-12-29T16:25:32.598Z,18.92
2022-12-29T16:28:41.669Z,26.51
2022-12-29T16:30:05.645Z,19.01
2022-12-29T16:31:39.036Z,20.52
2022-12-29T16:34:31.559Z,20.43
2022-12-29T16:35:53.078Z,19.39
2022-12-29T16:38:47.637Z,22.66
2022-12-29T16:40:30.863Z,26.94
2022-12-29T16:41:55.367Z,26.18
2022-12-29T16:43:25.604Z,22.39
2022-12-29T16:44:46.838Z,20.06
2022-12-29T16:46:18.347Z,15.61
2022-12-29T16:47:40.381Z,13.86
2022-12-29T16:49:01.739Z,15.69
2022-12-29T16:50:28.260Z,13.76
2022-12-29T16:51:45.697Z,13.97
2022-12-29T16:53:07.370Z,15.81
2022-12-29T16:56:21.073Z,17.17
2022-12-29T16:57:44.033Z,17.32
2022-12-29T16:59:27.126Z,19.69
2022-12-29T17:00:48.587Z,16.58
2022-12-29T17:03:33.793Z,13.19
2022-12-29T17:04:55.416Z,15.95
2022-12-29T17:07:40.521Z,15.67
2022-12-29T17:09:01.893Z,17.72
2022-12-29T17:10:23.547Z,18.23
2022-12-29T17:11:45.492Z,19.51
2022-12-29T17:13:07.129Z,21.10
2022-12-29T17:14:41.433Z,21.24
2022-12-29T17:16:03.589Z,20.20
2022-12-29T17:17:34.975Z,20.19
2022-12-29T17:18:56.165Z,23.03
2022-12-29T17:20:20.428Z,20.81
2022-12-29T17:21:41.704Z,18.63
2022-12-29T17:23:05.230Z,16.12
2022-12-29T17:24:27.064Z,16.97
2022-12-29T17:25:48.436Z,18.43
2022-12-29T17:27:13.080Z,17.39
2022-12-29T17:28:34.645Z,21.16
2022-12-29T17:31:10.781Z,22.12
2022-12-29T17:32:32.091Z,26.46
2022-12-29T17:33:53.473Z,25.76
2022-12-29T17:35:17.843Z,21.52
2022-12-29T17:36:42.560Z,19.00
2022-12-29T17:39:24.160Z,20.89
2022-12-29T17:40:45.722Z,21.96
2022-12-29T17:42:09.388Z,32.08
2022-12-29T17:43:36.650Z,22.84
2022-12-29T17:46:17.772Z,27.39
2022-12-29T17:47:38.909Z,28.19
2022-12-29T17:49:00.195Z,26.23
2022-12-29T17:50:24.443Z,30.08
2022-12-29T17:51:45.863Z,34.28
2022-12-29T17:53:12.823Z,30.38
2022-12-29T17:54:34.097Z,29.88
2022-12-29T17:55:55.450Z,24.02
2022-12-29T17:57:17.228Z,16.13
2022-12-29T17:58:38.321Z,18.16
2022-12-29T17:59:59.321Z,16.14
2022-12-29T18:01:20.916Z,17.87
2022-12-29T18:02:42.428Z,18.16
2022-12-29T18:04:04.736Z,17.54
2022-12-29T18:05:29.306Z,17.86
2022-12-29T18:06:51.054Z,17.49
2022-12-29T18:08:12.428Z,18.81
2022-12-29T18:09:36.598Z,18.53
2022-12-29T18:10:58.407Z,17.84
2022-12-29T18:12:39.226Z,18.65
2022-12-29T18:14:00.797Z,20.26
2022-12-29T18:15:24.203Z,18.46
2022-12-29T18:16:45.666Z,18.71
2022-12-29T18:18:13.840Z,20.60
2022-12-29T18:19:36.258Z,16.36
2022-12-29T18:20:58.715Z,24.38
2022-12-29T18:22:21.481Z,15.27
2022-12-29T18:23:42.750Z,17.69
2022-12-29T18:25:13.620Z,16.46
2022-12-29T18:26:34.752Z,20.04
2022-12-29T18:27:56.038Z,14.38
2022-12-29T18:29:17.248Z,15.42
2022-12-29T18:30:39.021Z,15.41
2022-12-29T18:32:01.999Z,14.22
2022-12-29T18:33:26.246Z,13.96
2022-12-29T18:34:46.801Z,17.28
2022-12-29T18:36:11.088Z,13.46
2022-12-29T18:37:32.221Z,11.81
2022-12-29T18:38:53.606Z,11.86
2022-12-29T18:40:15.867Z,9.62
2022-12-29T18:41:37.095Z,14.49
2022-12-29T18:42:58.067Z,18.01
2022-12-29T18:44:19.210Z,29.36
2022-12-29T18:45:41.717Z,24.57
2022-12-29T18:47:02.872Z,22.27
2022-12-29T18:48:24.204Z,15.12
2022-12-29T18:49:46.117Z,14.53
2022-12-29T18:51:09.067Z,19.58
2022-12-29T18:53:54.962Z,13.79
2022-12-29T18:56:35.777Z,16.62
2022-12-29T18:58:00.077Z,16.64
2022-12-29T18:59:21.347Z,15.54
2022-12-29T19:00:43.234Z,16.13
2022-12-29T19:02:05.916Z,16.86
2022-12-29T19:03:27.435Z,15.32
2022-12-29T19:04:53.086Z,16.98
2022-12-29T19:06:15.268Z,16.13
2022-12-29T19:07:36.641Z,15.04
2022-12-29T19:08:57.713Z,14.56
2022-12-29T19:10:19.665Z,13.43
2022-12-29T19:11:40.639Z,13.06
2022-12-29T19:13:02.018Z,13.42
2022-12-29T19:14:23.356Z,14.46
2022-12-29T19:15:47.090Z,14.71
2022-12-29T19:17:10.765Z,14.89
2022-12-29T19:18:44.060Z,17.26
2022-12-29T19:20:01.532Z,17.16
2022-12-29T19:21:23.064Z,16.26
2022-12-29T19:22:44.463Z,16.69
2022-12-29T19:24:06.006Z,13.08
2022-12-29T19:25:27.524Z,12.34
2022-12-29T19:26:48.933Z,11.68
2022-12-29T19:29:37.315Z,11.65
2022-12-29T19:31:01.409Z,9.94
2022-12-29T19:32:22.953Z,10.37
2022-12-29T19:33:48.372Z,9.88
2022-12-29T19:35:11.825Z,10.36
2022-12-29T19:36:33.450Z,9.82
2022-12-29T19:37:54.797Z,9.99
2022-12-29T19:39:16.416Z,10.89
2022-12-29T19:42:05.667Z,10.64
2022-12-29T19:43:27.442Z,11.01
2022-12-29T19:44:48.992Z,11.90
2022-12-29T19:46:16.507Z,10.74
2022-12-29T19:47:41.143Z,11.10
2022-12-29T19:49:02.074Z,10.70
2022-12-29T19:50:23.649Z,11.31
2022-12-29T19:51:48.611Z,10.78
2022-12-29T19:53:09.863Z,11.48
2022-12-29T19:54:31.240Z,10.92
2022-12-29T19:55:52.528Z,11.41
2022-12-29T19:57:14.036Z,11.14
2022-12-29T19:58:36.124Z,11.01
2022-12-29T19:59:57.335Z,11.93
2022-12-29T20:01:20.829Z,13.96
2022-12-29T20:02:42.390Z,14.31
2022-12-29T20:04:03.835Z,14.64
2022-12-29T20:05:25.287Z,14.77
2022-12-29T20:06:47.276Z,15.74
2022-12-29T20:08:08.576Z,16.92
2022-12-29T20:09:29.860Z,16.60
2022-12-29T20:11:05.506Z,15.21
2022-12-29T20:12:29.355Z,13.74
2022-12-29T20:13:49.660Z,14.26
2022-12-29T20:15:10.992Z,14.83
2022-12-29T20:16:32.999Z,14.43
2022-12-29T20:19:18.576Z,16.16
2022-12-29T20:20:39.989Z,15.98
2022-12-29T20:22:03.693Z,14.74
2022-12-29T20:23:24.932Z,14.27
2022-12-29T20:24:50.042Z,13.83
2022-12-29T20:27:35.197Z,12.22
2022-12-29T20:28:56.819Z,12.31
2022-12-29T20:30:18.090Z,11.77
2022-12-29T20:31:39.723Z,12.88
2022-12-29T20:33:06.209Z,12.36
2022-12-29T20:34:26.303Z,14.56
2022-12-29T20:35:47.622Z,13.36
2022-12-29T20:37:09.904Z,13.24
2022-12-29T20:39:53.181Z,12.66
2022-12-29T20:41:14.805Z,14.22
2022-12-29T20:42:37.182Z,12.74
2022-12-29T20:43:58.737Z,12.78
2022-12-29T20:45:20.317Z,12.35
2022-12-29T20:46:44.140Z,10.34
2022-12-29T20:49:27.594Z,11.03
2022-12-29T20:50:51.511Z,11.49
2022-12-29T20:52:14.929Z,12.96
2022-12-29T20:53:37.507Z,14.69
2022-12-29T20:54:58.645Z,12.19
2022-12-29T20:56:22.882Z,12.13
2022-12-29T20:58:22.135Z,10.04
2022-12-29T21:01:59.561Z,9.67
2022-12-29T21:03:21.399Z,10.68
2022-12-29T21:05:22.027Z,9.97
2022-12-29T21:06:10.745Z,10.83
2022-12-29T21:07:32.121Z,9.84
2022-12-29T21:08:53.554Z,9.66
2022-12-29T21:10:16.300Z,9.59
2022-12-29T21:11:37.704Z,10.37
2022-12-29T21:12:59.145Z,10.29
2022-12-29T21:14:21.248Z,11.11
2022-12-29T21:15:43.581Z,13.67
2022-12-29T21:17:04.977Z,15.12
2022-12-29T21:18:27.816Z,12.88
2022-12-29T21:19:49.025Z,14.68
2022-12-29T21:22:33.300Z,16.22
2022-12-29T21:25:16.407Z,19.07
2022-12-29T21:27:59.274Z,17.97
2022-12-29T21:29:22.464Z,18.92
2022-12-29T21:30:44.267Z,15.82
2022-12-29T21:32:06.782Z,14.64